sensor_id;sensor_type;location;lat;lon;timestamp;P1;durP1;ratioP1;P2;durP2;ratioP2
59294;SDS011;45067;44.654;20.200;2023-02-04T00:03:24;8.13;;;4.35;;
59294;SDS011;45067;44.654;20.200;2023-02-04T00:05:50;10.13;;;5.13;;
59294;SDS011;45067;44.654;20.200;2023-02-04T00:08:17;11.02;;;5.38;;
59294;SDS011;45067;44.654;20.200;2023-02-04T00:10:43;8.05;;;4.10;;
59294;SDS011;45067;44.654;20.200;2023-02-04T00:13:14;9.02;;;4.30;;
59294;SDS011;45067;44.654;20.200;2023-02-04T00:18:48;12.02;;;4.40;;
59294;SDS011;45067;44.654;20.200;2023-02-04T00:21:16;11.85;;;4.60;;
59294;SDS011;45067;44.654;20.200;2023-02-04T00:23:43;9.40;;;4.80;;
59294;SDS011;45067;44.654;20.200;2023-02-04T00:26:09;10.57;;;4.90;;
59294;SDS011;45067;44.654;20.200;2023-02-04T00:28:38;8.85;;;4.60;;
59294;SDS011;45067;44.654;20.200;2023-02-04T00:31:04;10.60;;;4.97;;
59294;SDS011;45067;44.654;20.200;2023-02-04T00:33:34;11.77;;;4.68;;
59294;SDS011;45067;44.654;20.200;2023-02-04T00:36:10;9.68;;;4.68;;
59294;SDS011;45067;44.654;20.200;2023-02-04T00:38:38;10.50;;;4.75;;
59294;SDS011;45067;44.654;20.200;2023-02-04T00:41:04;6.68;;;3.97;;
59294;SDS011;45067;44.654;20.200;2023-02-04T00:43:31;9.00;;;4.57;;
59294;SDS011;45067;44.654;20.200;2023-02-04T00:45:58;7.45;;;3.65;;
59294;SDS011;45067;44.654;20.200;2023-02-04T00:48:24;11.18;;;4.40;;
59294;SDS011;45067;44.654;20.200;2023-02-04T00:51:02;9.10;;;4.22;;
59294;SDS011;45067;44.654;20.200;2023-02-04T00:53:29;7.43;;;4.00;;
59294;SDS011;45067;44.654;20.200;2023-02-04T00:56:01;9.35;;;3.90;;
59294;SDS011;45067;44.654;20.200;2023-02-04T00:58:28;10.13;;;4.35;;
59294;SDS011;45067;44.654;20.200;2023-02-04T01:00:55;7.10;;;3.58;;
59294;SDS011;45067;44.654;20.200;2023-02-04T01:03:22;7.32;;;3.83;;
59294;SDS011;45067;44.654;20.200;2023-02-04T01:08:54;10.52;;;4.50;;
59294;SDS011;45067;44.654;20.200;2023-02-04T01:11:24;10.40;;;4.72;;
59294;SDS011;45067;44.654;20.200;2023-02-04T01:13:50;12.38;;;5.45;;
59294;SDS011;45067;44.654;20.200;2023-02-04T01:16:19;11.75;;;5.00;;
59294;SDS011;45067;44.654;20.200;2023-02-04T01:18:45;9.23;;;4.72;;
59294;SDS011;45067;44.654;20.200;2023-02-04T01:21:21;10.98;;;4.95;;
59294;SDS011;45067;44.654;20.200;2023-02-04T01:23:51;7.80;;;4.53;;
59294;SDS011;45067;44.654;20.200;2023-02-04T01:26:27;9.07;;;4.90;;
59294;SDS011;45067;44.654;20.200;2023-02-04T01:29:00;11.82;;;4.78;;
59294;SDS011;45067;44.654;20.200;2023-02-04T01:31:28;10.98;;;3.78;;
59294;SDS011;45067;44.654;20.200;2023-02-04T01:33:55;11.07;;;4.53;;
59294;SDS011;45067;44.654;20.200;2023-02-04T01:36:43;8.73;;;3.67;;
59294;SDS011;45067;44.654;20.200;2023-02-04T01:39:18;9.80;;;4.22;;
59294;SDS011;45067;44.654;20.200;2023-02-04T01:41:46;7.95;;;3.72;;
59294;SDS011;45067;44.654;20.200;2023-02-04T01:44:12;9.85;;;4.20;;
59294;SDS011;45067;44.654;20.200;2023-02-04T01:46:38;9.57;;;3.78;;
59294;SDS011;45067;44.654;20.200;2023-02-04T01:49:05;10.95;;;4.25;;
59294;SDS011;45067;44.654;20.200;2023-02-04T01:51:31;9.43;;;4.13;;
59294;SDS011;45067;44.654;20.200;2023-02-04T01:54:03;6.35;;;3.55;;
59294;SDS011;45067;44.654;20.200;2023-02-04T01:56:43;8.32;;;3.67;;
59294;SDS011;45067;44.654;20.200;2023-02-04T01:59:15;6.57;;;3.00;;
59294;SDS011;45067;44.654;20.200;2023-02-04T02:01:42;6.53;;;2.92;;
59294;SDS011;45067;44.654;20.200;2023-02-04T02:04:10;7.20;;;3.30;;
59294;SDS011;45067;44.654;20.200;2023-02-04T02:06:48;5.88;;;2.90;;
59294;SDS011;45067;44.654;20.200;2023-02-04T02:09:19;5.90;;;2.60;;
59294;SDS011;45067;44.654;20.200;2023-02-04T02:12:11;7.88;;;2.80;;
59294;SDS011;45067;44.654;20.200;2023-02-04T02:14:43;8.27;;;2.92;;
59294;SDS011;45067;44.654;20.200;2023-02-04T02:17:10;7.38;;;2.70;;
59294;SDS011;45067;44.654;20.200;2023-02-04T02:19:36;5.75;;;2.45;;
59294;SDS011;45067;44.654;20.200;2023-02-04T02:22:10;4.85;;;2.40;;
59294;SDS011;45067;44.654;20.200;2023-02-04T02:27:10;4.72;;;2.40;;
59294;SDS011;45067;44.654;20.200;2023-02-04T02:29:38;5.68;;;2.42;;
59294;SDS011;45067;44.654;20.200;2023-02-04T02:32:05;6.80;;;2.30;;
59294;SDS011;45067;44.654;20.200;2023-02-04T02:34:33;4.13;;;1.83;;
59294;SDS011;45067;44.654;20.200;2023-02-04T02:37:05;3.55;;;1.98;;
59294;SDS011;45067;44.654;20.200;2023-02-04T02:39:42;8.50;;;2.70;;
59294;SDS011;45067;44.654;20.200;2023-02-04T02:42:20;6.60;;;2.95;;
59294;SDS011;45067;44.654;20.200;2023-02-04T02:44:48;6.88;;;2.65;;
59294;SDS011;45067;44.654;20.200;2023-02-04T02:47:19;7.35;;;3.10;;
59294;SDS011;45067;44.654;20.200;2023-02-04T02:49:46;6.07;;;2.80;;
59294;SDS011;45067;44.654;20.200;2023-02-04T02:52:20;4.65;;;2.17;;
59294;SDS011;45067;44.654;20.200;2023-02-04T02:54:50;8.10;;;2.90;;
59294;SDS011;45067;44.654;20.200;2023-02-04T02:59:50;5.55;;;2.08;;
59294;SDS011;45067;44.654;20.200;2023-02-04T03:02:19;5.10;;;2.30;;
59294;SDS011;45067;44.654;20.200;2023-02-04T03:04:53;6.50;;;2.20;;
59294;SDS011;45067;44.654;20.200;2023-02-04T03:07:21;7.20;;;3.00;;
59294;SDS011;45067;44.654;20.200;2023-02-04T03:10:16;8.65;;;2.83;;
59294;SDS011;45067;44.654;20.200;2023-02-04T03:12:45;7.47;;;2.90;;
59294;SDS011;45067;44.654;20.200;2023-02-04T03:15:22;10.13;;;3.72;;
59294;SDS011;45067;44.654;20.200;2023-02-04T03:18:10;7.45;;;3.25;;
59294;SDS011;45067;44.654;20.200;2023-02-04T03:20:41;6.82;;;3.40;;
59294;SDS011;45067;44.654;20.200;2023-02-04T03:23:11;8.70;;;3.35;;
59294;SDS011;45067;44.654;20.200;2023-02-04T03:25:37;7.45;;;3.15;;
59294;SDS011;45067;44.654;20.200;2023-02-04T03:28:18;5.38;;;2.75;;
59294;SDS011;45067;44.654;20.200;2023-02-04T03:30:44;6.35;;;3.22;;
59294;SDS011;45067;44.654;20.200;2023-02-04T03:33:23;5.75;;;2.92;;
59294;SDS011;45067;44.654;20.200;2023-02-04T03:35:51;7.32;;;3.30;;
59294;SDS011;45067;44.654;20.200;2023-02-04T03:38:22;7.25;;;3.40;;
59294;SDS011;45067;44.654;20.200;2023-02-04T03:40:48;7.43;;;3.22;;
59294;SDS011;45067;44.654;20.200;2023-02-04T03:43:16;8.45;;;3.45;;
59294;SDS011;45067;44.654;20.200;2023-02-04T03:45:43;7.60;;;3.45;;
59294;SDS011;45067;44.654;20.200;2023-02-04T03:48:11;9.77;;;3.80;;
59294;SDS011;45067;44.654;20.200;2023-02-04T03:50:37;7.38;;;3.13;;
59294;SDS011;45067;44.654;20.200;2023-02-04T03:53:05;7.68;;;3.75;;
59294;SDS011;45067;44.654;20.200;2023-02-04T03:55:41;8.88;;;3.13;;
59294;SDS011;45067;44.654;20.200;2023-02-04T03:58:10;9.65;;;3.63;;
59294;SDS011;45067;44.654;20.200;2023-02-04T04:00:38;8.90;;;3.95;;
59294;SDS011;45067;44.654;20.200;2023-02-04T04:03:04;8.45;;;3.22;;
59294;SDS011;45067;44.654;20.200;2023-02-04T04:08:39;5.85;;;3.15;;
59294;SDS011;45067;44.654;20.200;2023-02-04T04:11:14;7.50;;;3.15;;
59294;SDS011;45067;44.654;20.200;2023-02-04T04:13:44;7.47;;;3.00;;
59294;SDS011;45067;44.654;20.200;2023-02-04T04:16:13;7.13;;;3.00;;
59294;SDS011;45067;44.654;20.200;2023-02-04T04:18:49;7.13;;;2.60;;
59294;SDS011;45067;44.654;20.200;2023-02-04T04:21:15;7.32;;;2.80;;
59294;SDS011;45067;44.654;20.200;2023-02-04T04:23:42;5.57;;;2.60;;
59294;SDS011;45067;44.654;20.200;2023-02-04T04:26:09;9.15;;;2.88;;
59294;SDS011;45067;44.654;20.200;2023-02-04T04:28:41;8.02;;;2.85;;
59294;SDS011;45067;44.654;20.200;2023-02-04T04:31:08;9.50;;;3.50;;
59294;SDS011;45067;44.654;20.200;2023-02-04T04:33:34;9.38;;;3.50;;
59294;SDS011;45067;44.654;20.200;2023-02-04T04:36:00;8.23;;;2.97;;
59294;SDS011;45067;44.654;20.200;2023-02-04T04:38:33;7.50;;;2.95;;
59294;SDS011;45067;44.654;20.200;2023-02-04T04:40:59;8.52;;;2.97;;
59294;SDS011;45067;44.654;20.200;2023-02-04T04:43:29;9.55;;;2.63;;
59294;SDS011;45067;44.654;20.200;2023-02-04T04:45:58;5.65;;;2.13;;
59294;SDS011;45067;44.654;20.200;2023-02-04T04:48:25;4.45;;;2.13;;
59294;SDS011;45067;44.654;20.200;2023-02-04T04:50:59;6.05;;;2.17;;
59294;SDS011;45067;44.654;20.200;2023-02-04T04:53:29;12.43;;;3.00;;
59294;SDS011;45067;44.654;20.200;2023-02-04T04:55:56;6.75;;;1.92;;
59294;SDS011;45067;44.654;20.200;2023-02-04T04:58:28;8.50;;;2.55;;
59294;SDS011;45067;44.654;20.200;2023-02-04T05:00:56;5.20;;;1.58;;
59294;SDS011;45067;44.654;20.200;2023-02-04T05:03:25;6.97;;;1.80;;
59294;SDS011;45067;44.654;20.200;2023-02-04T05:05:57;5.95;;;1.70;;
59294;SDS011;45067;44.654;20.200;2023-02-04T05:08:25;3.70;;;1.65;;
59294;SDS011;45067;44.654;20.200;2023-02-04T05:10:51;8.23;;;2.22;;
59294;SDS011;45067;44.654;20.200;2023-02-04T05:13:26;5.22;;;1.75;;
59294;SDS011;45067;44.654;20.200;2023-02-04T05:15:54;4.32;;;1.58;;
59294;SDS011;45067;44.654;20.200;2023-02-04T05:18:23;5.45;;;1.80;;
59294;SDS011;45067;44.654;20.200;2023-02-04T05:20:52;5.22;;;1.70;;
59294;SDS011;45067;44.654;20.200;2023-02-04T05:23:20;5.30;;;1.85;;
59294;SDS011;45067;44.654;20.200;2023-02-04T05:25:49;4.03;;;1.70;;
59294;SDS011;45067;44.654;20.200;2023-02-04T05:28:27;5.55;;;1.85;;
59294;SDS011;45067;44.654;20.200;2023-02-04T05:30:55;4.88;;;1.67;;
59294;SDS011;45067;44.654;20.200;2023-02-04T05:33:21;5.35;;;1.80;;
59294;SDS011;45067;44.654;20.200;2023-02-04T05:35:49;6.00;;;1.90;;
59294;SDS011;45067;44.654;20.200;2023-02-04T05:38:28;4.63;;;1.90;;
59294;SDS011;45067;44.654;20.200;2023-02-04T05:41:14;6.95;;;2.33;;
59294;SDS011;45067;44.654;20.200;2023-02-04T05:43:42;9.50;;;2.40;;
59294;SDS011;45067;44.654;20.200;2023-02-04T05:46:21;10.05;;;2.50;;
59294;SDS011;45067;44.654;20.200;2023-02-04T05:49:30;6.65;;;2.10;;
59294;SDS011;45067;44.654;20.200;2023-02-04T05:52:08;8.32;;;2.35;;
59294;SDS011;45067;44.654;20.200;2023-02-04T05:57:35;8.38;;;2.40;;
59294;SDS011;45067;44.654;20.200;2023-02-04T06:00:05;9.82;;;2.53;;
59294;SDS011;45067;44.654;20.200;2023-02-04T06:02:40;9.07;;;2.50;;
59294;SDS011;45067;44.654;20.200;2023-02-04T06:05:09;8.95;;;2.50;;
59294;SDS011;45067;44.654;20.200;2023-02-04T06:07:43;7.38;;;1.85;;
59294;SDS011;45067;44.654;20.200;2023-02-04T06:10:53;6.43;;;1.75;;
59294;SDS011;45067;44.654;20.200;2023-02-04T06:22:52;10.63;;;2.60;;
59294;SDS011;45067;44.654;20.200;2023-02-04T06:25:41;7.97;;;1.88;;
59294;SDS011;45067;44.654;20.200;2023-02-04T06:29:05;5.82;;;1.80;;
59294;SDS011;45067;44.654;20.200;2023-02-04T06:34:54;6.47;;;1.70;;
59294;SDS011;45067;44.654;20.200;2023-02-04T06:59:33;4.97;;;1.67;;
59294;SDS011;45067;44.654;20.200;2023-02-04T07:02:52;6.73;;;2.90;;
59294;SDS011;45067;44.654;20.200;2023-02-04T07:09:38;5.75;;;1.90;;
59294;SDS011;45067;44.654;20.200;2023-02-04T07:44:56;5.13;;;1.90;;
59294;SDS011;45067;44.654;20.200;2023-02-04T08:48:46;19.20;;;7.43;;
59294;SDS011;45067;44.654;20.200;2023-02-04T08:51:58;19.40;;;8.10;;
59294;SDS011;45067;44.654;20.200;2023-02-04T08:57:29;24.55;;;9.20;;
59294;SDS011;45067;44.654;20.200;2023-02-04T09:02:21;14.05;;;7.00;;
59294;SDS011;45067;44.654;20.200;2023-02-04T09:04:47;22.40;;;8.88;;
59294;SDS011;45067;44.654;20.200;2023-02-04T09:07:23;13.02;;;5.55;;
59294;SDS011;45067;44.654;20.200;2023-02-04T09:09:50;25.17;;;10.35;;
59294;SDS011;45067;44.654;20.200;2023-02-04T09:12:27;12.82;;;5.80;;
59294;SDS011;45067;44.654;20.200;2023-02-04T09:15:08;10.07;;;4.25;;
59294;SDS011;45067;44.654;20.200;2023-02-04T09:17:35;9.70;;;4.90;;
59294;SDS011;45067;44.654;20.200;2023-02-04T09:20:09;9.48;;;4.65;;
59294;SDS011;45067;44.654;20.200;2023-02-04T09:22:39;8.02;;;3.45;;
59294;SDS011;45067;44.654;20.200;2023-02-04T09:25:25;8.30;;;3.38;;
59294;SDS011;45067;44.654;20.200;2023-02-04T09:27:51;5.13;;;2.60;;
59294;SDS011;45067;44.654;20.200;2023-02-04T09:36:21;4.97;;;1.80;;
59294;SDS011;45067;44.654;20.200;2023-02-04T09:47:44;4.82;;;1.77;;
59294;SDS011;45067;44.654;20.200;2023-02-04T09:56:19;5.13;;;1.90;;
59294;SDS011;45067;44.654;20.200;2023-02-04T09:58:46;2.72;;;1.40;;
59294;SDS011;45067;44.654;20.200;2023-02-04T10:10:20;4.75;;;1.92;;
59294;SDS011;45067;44.654;20.200;2023-02-04T10:12:50;3.92;;;1.60;;
59294;SDS011;45067;44.654;20.200;2023-02-04T10:15:26;2.53;;;1.50;;
59294;SDS011;45067;44.654;20.200;2023-02-04T10:17:57;5.55;;;1.73;;
59294;SDS011;45067;44.654;20.200;2023-02-04T10:23:58;5.45;;;2.15;;
59294;SDS011;45067;44.654;20.200;2023-02-04T10:26:28;3.83;;;1.75;;
59294;SDS011;45067;44.654;20.200;2023-02-04T10:29:12;5.65;;;2.25;;
59294;SDS011;45067;44.654;20.200;2023-02-04T10:31:39;3.85;;;1.73;;
59294;SDS011;45067;44.654;20.200;2023-02-04T10:36:54;5.53;;;1.90;;
59294;SDS011;45067;44.654;20.200;2023-02-04T10:39:25;4.38;;;1.40;;
59294;SDS011;45067;44.654;20.200;2023-02-04T10:41:52;3.10;;;1.73;;
59294;SDS011;45067;44.654;20.200;2023-02-04T10:44:24;5.78;;;1.85;;
59294;SDS011;45067;44.654;20.200;2023-02-04T10:49:27;6.65;;;2.03;;
59294;SDS011;45067;44.654;20.200;2023-02-04T10:52:05;4.28;;;1.60;;
59294;SDS011;45067;44.654;20.200;2023-02-04T10:54:50;4.35;;;2.08;;
59294;SDS011;45067;44.654;20.200;2023-02-04T10:57:25;3.42;;;1.77;;
59294;SDS011;45067;44.654;20.200;2023-02-04T10:59:58;3.92;;;1.92;;
59294;SDS011;45067;44.654;20.200;2023-02-04T11:02:42;4.13;;;2.10;;
59294;SDS011;45067;44.654;20.200;2023-02-04T11:05:19;5.38;;;2.35;;
59294;SDS011;45067;44.654;20.200;2023-02-04T11:10:32;4.18;;;2.13;;
59294;SDS011;45067;44.654;20.200;2023-02-04T11:16:28;4.93;;;2.60;;
59294;SDS011;45067;44.654;20.200;2023-02-04T11:18:57;8.43;;;3.20;;
59294;SDS011;45067;44.654;20.200;2023-02-04T11:21:25;5.40;;;3.03;;
59294;SDS011;45067;44.654;20.200;2023-02-04T11:24:24;8.02;;;3.53;;
59294;SDS011;45067;44.654;20.200;2023-02-04T11:29:45;9.10;;;3.55;;
59294;SDS011;45067;44.654;20.200;2023-02-04T11:32:37;6.32;;;4.32;;
59294;SDS011;45067;44.654;20.200;2023-02-04T11:35:25;6.70;;;3.60;;
59294;SDS011;45067;44.654;20.200;2023-02-04T11:37:56;10.25;;;4.20;;
59294;SDS011;45067;44.654;20.200;2023-02-04T11:40:34;6.40;;;3.72;;
59294;SDS011;45067;44.654;20.200;2023-02-04T11:51:17;10.68;;;4.78;;
59294;SDS011;45067;44.654;20.200;2023-02-04T11:56:43;9.85;;;4.40;;
59294;SDS011;45067;44.654;20.200;2023-02-04T12:00:04;8.90;;;4.25;;
59294;SDS011;45067;44.654;20.200;2023-02-04T12:05:57;7.55;;;4.35;;
59294;SDS011;45067;44.654;20.200;2023-02-04T12:14:09;8.48;;;4.25;;
59294;SDS011;45067;44.654;20.200;2023-02-04T12:25:36;6.75;;;3.85;;
59294;SDS011;45067;44.654;20.200;2023-02-04T12:34:41;9.80;;;3.95;;
59294;SDS011;45067;44.654;20.200;2023-02-04T12:37:11;6.55;;;4.05;;
59294;SDS011;45067;44.654;20.200;2023-02-04T12:42:41;9.57;;;3.67;;
59294;SDS011;45067;44.654;20.200;2023-02-04T12:45:09;7.30;;;3.92;;
59294;SDS011;45067;44.654;20.200;2023-02-04T12:47:58;9.13;;;4.25;;
59294;SDS011;45067;44.654;20.200;2023-02-04T12:50:48;5.80;;;3.30;;
59294;SDS011;45067;44.654;20.200;2023-02-04T12:53:34;6.72;;;3.97;;
59294;SDS011;45067;44.654;20.200;2023-02-04T12:56:04;5.47;;;3.40;;
59294;SDS011;45067;44.654;20.200;2023-02-04T13:01:09;6.35;;;3.60;;
59294;SDS011;45067;44.654;20.200;2023-02-04T13:03:43;6.38;;;3.38;;
59294;SDS011;45067;44.654;20.200;2023-02-04T13:06:11;5.80;;;3.30;;
59294;SDS011;45067;44.654;20.200;2023-02-04T13:11:19;5.57;;;3.67;;
59294;SDS011;45067;44.654;20.200;2023-02-04T13:16:57;5.85;;;3.33;;
59294;SDS011;45067;44.654;20.200;2023-02-04T13:27:52;8.20;;;3.85;;
59294;SDS011;45067;44.654;20.200;2023-02-04T13:30:20;9.90;;;4.18;;
59294;SDS011;45067;44.654;20.200;2023-02-04T13:33:18;5.68;;;3.40;;
59294;SDS011;45067;44.654;20.200;2023-02-04T13:35:52;7.03;;;3.72;;
59294;SDS011;45067;44.654;20.200;2023-02-04T13:49:07;8.23;;;4.50;;
59294;SDS011;45067;44.654;20.200;2023-02-04T13:51:36;6.32;;;3.60;;
59294;SDS011;45067;44.654;20.200;2023-02-04T13:54:02;8.02;;;4.30;;
59294;SDS011;45067;44.654;20.200;2023-02-04T13:56:31;6.35;;;3.90;;
59294;SDS011;45067;44.654;20.200;2023-02-04T13:58:57;6.70;;;3.72;;
59294;SDS011;45067;44.654;20.200;2023-02-04T14:01:23;7.53;;;4.50;;
59294;SDS011;45067;44.654;20.200;2023-02-04T14:03:49;7.60;;;4.35;;
59294;SDS011;45067;44.654;20.200;2023-02-04T14:06:15;6.90;;;4.57;;
59294;SDS011;45067;44.654;20.200;2023-02-04T14:08:45;6.82;;;3.92;;
59294;SDS011;45067;44.654;20.200;2023-02-04T14:11:11;6.22;;;3.80;;
59294;SDS011;45067;44.654;20.200;2023-02-04T14:13:38;6.32;;;3.90;;
59294;SDS011;45067;44.654;20.200;2023-02-04T14:16:04;6.63;;;4.10;;
59294;SDS011;45067;44.654;20.200;2023-02-04T14:18:36;8.38;;;4.35;;
59294;SDS011;45067;44.654;20.200;2023-02-04T14:21:07;7.80;;;4.20;;
59294;SDS011;45067;44.654;20.200;2023-02-04T14:26:16;9.25;;;4.22;;
59294;SDS011;45067;44.654;20.200;2023-02-04T14:31:49;6.22;;;3.78;;
59294;SDS011;45067;44.654;20.200;2023-02-04T14:34:19;5.97;;;3.63;;
59294;SDS011;45067;44.654;20.200;2023-02-04T14:37:04;5.82;;;3.58;;
59294;SDS011;45067;44.654;20.200;2023-02-04T14:42:09;6.70;;;3.67;;
59294;SDS011;45067;44.654;20.200;2023-02-04T14:44:36;5.90;;;3.78;;
59294;SDS011;45067;44.654;20.200;2023-02-04T14:47:06;7.53;;;3.97;;
59294;SDS011;45067;44.654;20.200;2023-02-04T14:49:37;8.57;;;3.92;;
59294;SDS011;45067;44.654;20.200;2023-02-04T14:52:03;7.32;;;3.47;;
59294;SDS011;45067;44.654;20.200;2023-02-04T14:54:31;6.28;;;3.72;;
59294;SDS011;45067;44.654;20.200;2023-02-04T14:57:01;7.40;;;4.13;;
59294;SDS011;45067;44.654;20.200;2023-02-04T15:01:58;7.22;;;3.95;;
59294;SDS011;45067;44.654;20.200;2023-02-04T15:04:25;8.13;;;5.22;;
59294;SDS011;45067;44.654;20.200;2023-02-04T15:06:53;8.63;;;4.32;;
59294;SDS011;45067;44.654;20.200;2023-02-04T15:09:19;8.05;;;4.40;;
59294;SDS011;45067;44.654;20.200;2023-02-04T15:11:52;8.25;;;4.57;;
59294;SDS011;45067;44.654;20.200;2023-02-04T15:14:22;6.70;;;4.20;;
59294;SDS011;45067;44.654;20.200;2023-02-04T15:16:48;8.93;;;4.00;;
59294;SDS011;45067;44.654;20.200;2023-02-04T15:19:15;7.18;;;4.22;;
59294;SDS011;45067;44.654;20.200;2023-02-04T15:21:45;6.78;;;4.20;;
59294;SDS011;45067;44.654;20.200;2023-02-04T15:24:14;10.60;;;4.97;;
59294;SDS011;45067;44.654;20.200;2023-02-04T15:26:40;9.70;;;4.35;;
59294;SDS011;45067;44.654;20.200;2023-02-04T15:29:06;7.63;;;4.57;;
59294;SDS011;45067;44.654;20.200;2023-02-04T15:31:32;7.68;;;3.88;;
59294;SDS011;45067;44.654;20.200;2023-02-04T15:34:00;8.65;;;4.07;;
59294;SDS011;45067;44.654;20.200;2023-02-04T15:36:26;8.10;;;3.17;;
59294;SDS011;45067;44.654;20.200;2023-02-04T15:38:54;9.95;;;5.60;;
59294;SDS011;45067;44.654;20.200;2023-02-04T15:41:20;7.70;;;4.25;;
59294;SDS011;45067;44.654;20.200;2023-02-04T15:43:48;6.82;;;3.63;;
59294;SDS011;45067;44.654;20.200;2023-02-04T15:46:14;6.93;;;3.90;;
59294;SDS011;45067;44.654;20.200;2023-02-04T15:48:40;6.68;;;3.40;;
59294;SDS011;45067;44.654;20.200;2023-02-04T15:51:06;7.68;;;3.45;;
59294;SDS011;45067;44.654;20.200;2023-02-04T15:53:32;7.88;;;4.00;;
59294;SDS011;45067;44.654;20.200;2023-02-04T15:56:04;6.38;;;3.40;;
59294;SDS011;45067;44.654;20.200;2023-02-04T15:58:36;6.43;;;3.58;;
59294;SDS011;45067;44.654;20.200;2023-02-04T16:01:03;6.22;;;3.22;;
59294;SDS011;45067;44.654;20.200;2023-02-04T16:03:29;7.03;;;3.97;;
59294;SDS011;45067;44.654;20.200;2023-02-04T16:05:58;6.78;;;3.65;;
59294;SDS011;45067;44.654;20.200;2023-02-04T16:08:24;7.68;;;4.07;;
59294;SDS011;45067;44.654;20.200;2023-02-04T16:10:53;6.47;;;3.90;;
59294;SDS011;45067;44.654;20.200;2023-02-04T16:13:22;7.13;;;3.83;;
59294;SDS011;45067;44.654;20.200;2023-02-04T16:15:48;8.30;;;4.20;;
59294;SDS011;45067;44.654;20.200;2023-02-04T16:18:15;8.40;;;4.43;;
59294;SDS011;45067;44.654;20.200;2023-02-04T16:20:43;10.45;;;4.60;;
59294;SDS011;45067;44.654;20.200;2023-02-04T16:23:10;8.45;;;4.93;;
59294;SDS011;45067;44.654;20.200;2023-02-04T16:25:36;8.38;;;4.72;;
59294;SDS011;45067;44.654;20.200;2023-02-04T16:28:02;7.72;;;4.80;;
59294;SDS011;45067;44.654;20.200;2023-02-04T16:30:28;8.75;;;4.40;;
59294;SDS011;45067;44.654;20.200;2023-02-04T16:32:54;8.60;;;4.88;;
59294;SDS011;45067;44.654;20.200;2023-02-04T16:35:21;11.80;;;4.63;;
59294;SDS011;45067;44.654;20.200;2023-02-04T16:37:48;9.85;;;4.30;;
59294;SDS011;45067;44.654;20.200;2023-02-04T16:40:15;7.65;;;3.97;;
59294;SDS011;45067;44.654;20.200;2023-02-04T16:42:42;7.20;;;4.13;;
59294;SDS011;45067;44.654;20.200;2023-02-04T16:45:09;10.77;;;5.38;;
59294;SDS011;45067;44.654;20.200;2023-02-04T16:47:36;10.13;;;5.50;;
59294;SDS011;45067;44.654;20.200;2023-02-04T16:50:02;10.13;;;5.65;;
59294;SDS011;45067;44.654;20.200;2023-02-04T16:52:29;8.55;;;4.80;;
59294;SDS011;45067;44.654;20.200;2023-02-04T16:54:57;11.07;;;5.72;;
59294;SDS011;45067;44.654;20.200;2023-02-04T16:57:23;7.43;;;4.28;;
59294;SDS011;45067;44.654;20.200;2023-02-04T16:59:49;8.15;;;4.70;;
59294;SDS011;45067;44.654;20.200;2023-02-04T17:02:15;8.13;;;5.03;;
59294;SDS011;45067;44.654;20.200;2023-02-04T17:04:41;8.07;;;4.72;;
59294;SDS011;45067;44.654;20.200;2023-02-04T17:07:09;10.68;;;5.85;;
59294;SDS011;45067;44.654;20.200;2023-02-04T17:09:35;9.93;;;5.40;;
59294;SDS011;45067;44.654;20.200;2023-02-04T17:12:04;8.02;;;4.80;;
59294;SDS011;45067;44.654;20.200;2023-02-04T17:14:32;13.18;;;5.20;;
59294;SDS011;45067;44.654;20.200;2023-02-04T17:16:58;6.50;;;3.40;;
59294;SDS011;45067;44.654;20.200;2023-02-04T17:19:25;9.70;;;3.78;;
59294;SDS011;45067;44.654;20.200;2023-02-04T17:21:51;8.57;;;4.40;;
59294;SDS011;45067;44.654;20.200;2023-02-04T17:24:19;7.85;;;4.25;;
59294;SDS011;45067;44.654;20.200;2023-02-04T17:26:45;8.98;;;3.63;;
59294;SDS011;45067;44.654;20.200;2023-02-04T17:29:14;6.97;;;3.38;;
59294;SDS011;45067;44.654;20.200;2023-02-04T17:31:46;6.90;;;3.90;;
59294;SDS011;45067;44.654;20.200;2023-02-04T17:34:13;9.45;;;3.10;;
59294;SDS011;45067;44.654;20.200;2023-02-04T17:36:39;6.28;;;2.95;;
59294;SDS011;45067;44.654;20.200;2023-02-04T17:39:41;7.45;;;3.30;;
59294;SDS011;45067;44.654;20.200;2023-02-04T17:42:09;7.35;;;3.08;;
59294;SDS011;45067;44.654;20.200;2023-02-04T17:44:40;7.50;;;3.58;;
59294;SDS011;45067;44.654;20.200;2023-02-04T17:47:11;7.18;;;3.70;;
59294;SDS011;45067;44.654;20.200;2023-02-04T17:49:37;12.65;;;6.30;;
59294;SDS011;45067;44.654;20.200;2023-02-04T17:52:03;8.90;;;4.10;;
59294;SDS011;45067;44.654;20.200;2023-02-04T17:54:32;9.75;;;5.55;;
59294;SDS011;45067;44.654;20.200;2023-02-04T17:57:00;7.90;;;4.22;;
59294;SDS011;45067;44.654;20.200;2023-02-04T17:59:27;7.55;;;4.10;;
59294;SDS011;45067;44.654;20.200;2023-02-04T18:01:56;7.07;;;4.00;;
59294;SDS011;45067;44.654;20.200;2023-02-04T18:04:35;10.38;;;4.53;;
59294;SDS011;45067;44.654;20.200;2023-02-04T18:07:23;7.80;;;4.35;;
59294;SDS011;45067;44.654;20.200;2023-02-04T18:12:38;8.05;;;4.05;;
59294;SDS011;45067;44.654;20.200;2023-02-04T18:15:09;9.77;;;4.75;;
59294;SDS011;45067;44.654;20.200;2023-02-04T18:17:48;12.75;;;4.88;;
59294;SDS011;45067;44.654;20.200;2023-02-04T18:20:19;11.77;;;4.28;;
59294;SDS011;45067;44.654;20.200;2023-02-04T18:22:46;11.13;;;5.88;;
59294;SDS011;45067;44.654;20.200;2023-02-04T18:27:42;10.13;;;5.18;;
59294;SDS011;45067;44.654;20.200;2023-02-04T18:30:19;9.00;;;4.35;;
59294;SDS011;45067;44.654;20.200;2023-02-04T18:32:52;11.20;;;4.90;;
59294;SDS011;45067;44.654;20.200;2023-02-04T18:43:42;6.97;;;3.78;;
59294;SDS011;45067;44.654;20.200;2023-02-04T18:51:23;8.10;;;2.47;;
59294;SDS011;45067;44.654;20.200;2023-02-04T18:53:55;5.55;;;3.22;;
59294;SDS011;45067;44.654;20.200;2023-02-04T18:56:33;6.03;;;3.20;;
59294;SDS011;45067;44.654;20.200;2023-02-04T18:59:11;4.97;;;2.95;;
59294;SDS011;45067;44.654;20.200;2023-02-04T19:01:38;5.70;;;3.00;;
59294;SDS011;45067;44.654;20.200;2023-02-04T19:04:05;6.38;;;3.40;;
59294;SDS011;45067;44.654;20.200;2023-02-04T19:06:42;4.90;;;2.90;;
59294;SDS011;45067;44.654;20.200;2023-02-04T19:11:45;6.40;;;2.88;;
59294;SDS011;45067;44.654;20.200;2023-02-04T19:14:34;6.32;;;3.10;;
59294;SDS011;45067;44.654;20.200;2023-02-04T19:19:33;9.25;;;3.97;;
59294;SDS011;45067;44.654;20.200;2023-02-04T19:22:15;8.43;;;3.75;;
59294;SDS011;45067;44.654;20.200;2023-02-04T19:24:42;9.98;;;3.47;;
59294;SDS011;45067;44.654;20.200;2023-02-04T19:27:43;6.35;;;3.50;;
59294;SDS011;45067;44.654;20.200;2023-02-04T19:32:47;7.15;;;3.40;;
59294;SDS011;45067;44.654;20.200;2023-02-04T19:35:23;7.03;;;2.88;;
59294;SDS011;45067;44.654;20.200;2023-02-04T19:37:56;6.28;;;3.25;;
59294;SDS011;45067;44.654;20.200;2023-02-04T19:42:57;7.65;;;3.30;;
59294;SDS011;45067;44.654;20.200;2023-02-04T19:45:25;6.88;;;3.55;;
59294;SDS011;45067;44.654;20.200;2023-02-04T19:47:52;9.73;;;4.53;;
59294;SDS011;45067;44.654;20.200;2023-02-04T19:50:28;8.70;;;4.20;;
59294;SDS011;45067;44.654;20.200;2023-02-04T19:55:31;8.88;;;4.03;;
59294;SDS011;45067;44.654;20.200;2023-02-04T20:01:04;6.15;;;3.53;;
59294;SDS011;45067;44.654;20.200;2023-02-04T20:03:43;6.85;;;3.50;;
59294;SDS011;45067;44.654;20.200;2023-02-04T20:06:27;7.78;;;3.75;;
59294;SDS011;45067;44.654;20.200;2023-02-04T20:12:01;10.80;;;3.80;;
59294;SDS011;45067;44.654;20.200;2023-02-04T20:17:16;6.53;;;3.65;;
59294;SDS011;45067;44.654;20.200;2023-02-04T20:19:43;7.97;;;3.60;;
59294;SDS011;45067;44.654;20.200;2023-02-04T20:24:52;6.38;;;3.25;;